Terminal Aerodrome Forecast
Issued by NWS

Home | Current Version | Previous Version | Text Only | Print | Product List | Glossary On
Versions: 1 2 3 4 5 6 7 8 9 10 11 12 13 14 15
116
FTUS43 KFGF 051138
TAFTVF
TAF
KTVF 051138Z 0512/0612 16005KT P6SM OVC008
     FM051800 09009KT P6SM OVC008
     FM052300 08010KT 1 1/2SM -SN OVC008
     FM060000 07011KT 1SM -SN OVC008
     FM060500 04011KT 2SM -SN OVC008
     FM060700 36010KT 3SM -SN OVC003
     FM060800 33010KT 3SM -SN OVC003=

USA.gov is the U.S. government's official web portal to all federal, state and local government web resources and services.